• Join FlightAware (Why Join?)
  • Login
  • US Flag 
08:48AM EDT


 

Airport Tracker/Info


-or-


 

Live Flight TrackerFlight Track Log ✈ SKW5550 ✈ 16-Jan-2014 ✈ KCOD - KDEN

Flight Track Log - Related Links

Times and Time Zones

All times are in EST time to prevent confusion due to time zone crossing. See the SKW5550 flight status page for this flight to view local times or setup timezone preferences in your user account.

Time Position Orientation Groundspeed Altitude Reporting Facility
EST Latitude Longitude Course Direction KTS MPH feet Rate Location/Type
07:57AM 44.5378 -108.9928 159° South 198 228 6,400  Level Salt Lake Center
07:58AM 44.5717 -108.9464 44° Northeast 174 200 8,300 1,920 Climbing Salt Lake Center
07:59AM 44.3593 -108.8118 154° Southeast  Level FlightAware Approximate
07:59AM 44.5228 -108.8903 141° Southeast 236 272 10,300  Level Salt Lake Center
08:00AM 44.2420 -108.7359 158° South  Level FlightAware Approximate
08:00AM 44.4500 -108.8656 166° South 252 290 11,900  Level Salt Lake Center
08:01AM 44.1222 -108.6682 159° South  Level FlightAware Approximate
08:01AM 44.3631 -108.8194 159° South 291 335 13,800  Level Salt Lake Center
08:02AM 44.0019 -108.6025 159° South  Level FlightAware Approximate
08:02AM 44.2469 -108.7492 157° South 362 417 16,100  Level Salt Lake Center
08:03AM 44.1489 -108.6939 158° South 378 435 17,800 1,680 Climbing Salt Lake Center
08:04AM 44.0450 -108.6350 158° South 392 451 19,500 1,500 Climbing Salt Lake Center
08:05AM 43.9394 -108.5736 157° South 406 467 20,900 1,200 Climbing Salt Lake Center
08:06AM 43.8297 -108.5108 158° South 423 487 22,000 1,200 Climbing Salt Lake Center
08:07AM 43.7153 -108.4456 158° South 441 507 23,300 1,140 Climbing Salt Lake Center
08:08AM 43.6000 -108.3819 158° South 447 514 24,400 1,080 Climbing Salt Lake Center
08:09AM 43.4836 -108.3144 157° South 454 522 25,500 1,020 Climbing Salt Lake Center
08:10AM 43.3783 -108.2139 145° Southeast 461 531 26,500 900 Climbing Salt Lake Center
08:11AM 43.2750 -108.1033 142° Southeast 469 540 27,400 840 Climbing Salt Lake Center
08:12AM 43.1708 -107.9928 142° Southeast 475 547 28,300 720 Climbing Salt Lake Center
08:13AM 43.0650 -107.8808 142° Southeast 480 552 28,900 600 Climbing Salt Lake Center
08:14AM 42.9581 -107.7700 143° Southeast 484 557 29,500 540 Climbing Salt Lake Center
08:15AM 42.8428 -107.6486 142° Southeast 488 562 30,000 420 Climbing Salt Lake Center
08:16AM 42.7389 -107.5403 143° Southeast 491 565 30,400 420 Climbing Salt Lake Center
08:17AM 42.6339 -107.4325 143° Southeast 494 568 30,900 240 Climbing Salt Lake Center
08:18AM 42.5275 -107.3242 143° Southeast 498 573 31,000  Climbing Salt Lake Center
08:19AM 42.4006 -107.1942 143° Southeast 506 582 31,000  Level Salt Lake Center
08:20AM 42.2889 -107.0831 144° Southeast 515 593 31,000  Level Salt Lake Center
08:21AM 42.1764 -106.9692 143° Southeast 522 601 31,000  Level Salt Lake Center
08:22AM 42.0439 -106.8372 144° Southeast 527 606 31,000  Level Salt Lake Center
08:23AM 41.9283 -106.7217 143° Southeast 533 613 31,000  Level Salt Lake Center
08:24AM 41.8158 -106.6122 144° Southeast 531 611 31,000  Level Salt Lake Center
08:25AM 41.6864 -106.4847 144° Southeast 522 601 31,000  Level Salt Lake Center
08:26AM 41.5742 -106.3764 144° Southeast 521 600 31,000  Level Salt Lake Center
08:27AM 41.4094 -106.2136 143° Southeast 516 594 31,000  Level Denver Center
08:28AM 41.3003 -106.1075 144° Southeast 510 587 31,000 -480 Level Denver Center
08:29AM 41.1906 -106.0011 144° Southeast 510 587 30,100 -1,200 Descending Denver Center
08:30AM 41.0625 -105.8778 144° Southeast 510 587 28,600 -1,320 Descending Denver Center
08:31AM 40.9614 -105.7803 144° Southeast 498 573 27,500 -1,200 Descending Denver Center
08:32AM 40.8517 -105.6742 144° Southeast 492 566 26,300 -1,200 Descending Denver Center
08:33AM 40.7442 -105.5744 145° Southeast 478 550 25,100 -1,200 Descending Denver Center
08:34AM 40.6394 -105.4750 144° Southeast 467 537 23,900 -1,260 Descending Denver Center
08:35AM 40.5572 -105.3539 132° Southeast 450 518 22,600 -1,440 Descending Denver Center
08:36AM 40.4742 -105.2250 130° Southeast 413 475 21,000 -1,680 Descending Denver Center
08:37AM 40.3814 -105.1478 148° Southeast 390 449 19,200 -1,800 Descending Denver Center
08:38AM 40.2886 -105.0742 149° Southeast 390 449 17,400 -1,560 Descending Denver Center
08:39AM 40.1981 -105.0019 149° Southeast 378 435 16,100 -1,260 Descending Denver Center
08:40AM 40.1103 -104.9319 149° Southeast 371 427 14,900 -1,260 Descending Denver Center
08:41AM 40.0189 -104.8589 149° Southeast 360 414 13,600 -1,260 Descending Denver Center
08:42AM 39.9353 -104.8072 155° Southeast 338 389 12,400 -1,140 Descending Denver Center
08:43AM 39.8447 -104.8089 181° South 328 377 11,400 -780 Descending Denver Center
08:44AM 39.7669 -104.8103 181° South 282 325 10,900 -720 Descending Denver Center
08:45AM 39.7044 -104.7861 163° South 245 282 10,000 -1,200 Descending Denver Center
08:46AM 39.7122 -104.7086 83° East 232 267 8,600 -1,380 Descending Denver Center
08:47AM 39.7589 -104.6700 32° Northeast 195 224 7,300 -1,260 Descending Denver Center
08:48AM 39.7978 -104.6608 10° North 141 162 6,100 -960 Descending Denver Center
08:49AM 39.8383 -104.6600 North 149 171 5,400 -720 Descending Denver Center